Time;durP1;ratioP1;P1;durP2;ratioP2;P2;SDS_P1;SDS_P2;PMS_P1;PMS_P2;Temp;Humidity;BMP_temperature;BMP_pressure;BME280_temperature;BME280_humidity;BME280_pressure;Samples;Min_cycle;Max_cycle;Signal;HPM_P1;HPM_P2
2022/04/15 00:02:12;;;;;;;;;;;;;;;18.75;51.23;102645.59;4901629;29;19923;-76
2022/04/15 00:04:38;;;;;;;;;;;;;;;18.76;51.13;102647.31;4916555;29;20362;-77
2022/04/15 00:07:03;;;;;;;;;;;;;;;18.76;51.23;102654.28;4916687;29;19926;-76
2022/04/15 00:09:30;;;;;;;;;;;;;;;18.78;51.21;102655.22;4900672;29;20382;-77
2022/04/15 00:11:57;;;;;;;;;;;;;;;18.77;51.34;102663.84;4901074;29;20014;-76
2022/04/15 00:14:22;;;;;;;;;;;;;;;18.76;51.25;102659.50;4916484;29;20010;-76
2022/04/15 00:16:48;;;;;;;;;;;;;;;18.79;51.30;102659.56;4916710;29;19959;-77
2022/04/15 00:19:14;;;;;;;;;;;;;;;18.79;51.23;102664.78;4917035;29;19922;-77
2022/04/15 00:21:39;;;;;;;;;;;;;;;18.77;51.27;102663.84;4916241;29;20295;-77
2022/04/15 00:24:04;;;;;;;;;;;;;;;18.77;51.27;102661.22;4900531;29;19919;-77
2022/04/15 00:26:30;;;;;;;;;;;;;;;18.78;51.28;102665.66;4901035;29;20359;-76
2022/04/15 00:28:55;;;;;;;;;;;;;;;18.77;51.41;102663.84;4900584;29;19923;-76
2022/04/15 00:31:20;;;;;;;;;;;;;;;18.76;51.30;102665.59;4919695;29;19943;-77
2022/04/15 00:33:45;;;;;;;;;;;;;;;18.77;51.32;102666.44;4904268;29;20113;-76
2022/04/15 00:36:11;;;;;;;;;;;;;;;18.77;51.43;102666.44;4919921;29;19975;-77
2022/04/15 00:38:36;;;;;;;;;;;;;;;18.77;51.32;102674.28;4904093;29;19923;-77
2022/04/15 00:41:01;;;;;;;;;;;;;;;18.77;51.30;102669.06;4919835;29;20353;-76
2022/04/15 00:43:26;;;;;;;;;;;;;;;18.77;51.38;102688.22;4919813;29;19923;-76
2022/04/15 00:45:52;;;;;;;;;;;;;;;18.77;51.41;102679.50;4904006;29;19970;-76
2022/04/15 00:48:18;;;;;;;;;;;;;;;18.77;51.22;102672.56;4903866;29;19919;-76
2022/04/15 00:50:44;;;;;;;;;;;;;;;18.77;51.29;102672.56;4919559;29;20322;-76
2022/04/15 00:53:10;;;;;;;;;;;;;;;18.76;51.34;102681.22;4919630;29;19919;-76
2022/04/15 00:55:36;;;;;;;;;;;;;;;18.75;51.50;102678.59;4919818;29;19926;-75
2022/04/15 00:58:03;;;;;;;;;;;;;;;18.75;51.46;102676.88;4919603;29;20021;-75
2022/04/15 01:00:29;;;;;;;;;;;;;;;18.77;51.45;102682.09;4919499;29;19915;-76
2022/04/15 01:02:58;;;;;;;;;;;;;;;18.77;51.50;102684.72;4919622;29;19938;-76
2022/04/15 01:05:24;;;;;;;;;;;;;;;18.74;51.36;102672.50;4903793;29;19942;-75
2022/04/15 01:07:51;;;;;;;;;;;;;;;18.74;51.48;102682.06;4903596;29;20359;-75
2022/04/15 01:10:17;;;;;;;;;;;;;;;18.73;51.43;102682.91;4903548;29;19919;-75
2022/04/15 01:12:48;;;;;;;;;;;;;;;18.73;51.45;102681.19;4919319;29;19962;-75
2022/04/15 01:15:13;;;;;;;;;;;;;;;18.72;51.49;102674.22;4920518;29;19915;-76
2022/04/15 01:17:39;;;;;;;;;;;;;;;18.75;51.48;102681.19;4920705;29;19915;-75
2022/04/15 01:20:07;;;;;;;;;;;;;;;18.73;51.45;102683.81;4919113;29;19915;-75
2022/04/15 01:22:37;;;;;;;;;;;;;;;18.73;51.61;102682.91;4919012;29;20409;-75
2022/04/15 01:25:03;;;;;;;;;;;;;;;18.75;51.41;102683.81;4919211;29;19919;-75
2022/04/15 01:27:32;;;;;;;;;;;;;;;18.71;51.60;102678.56;4920426;29;19923;-76
2022/04/15 01:29:58;;;;;;;;;;;;;;;18.73;51.50;102680.28;4920434;29;19923;-75
2022/04/15 01:32:23;;;;;;;;;;;;;;;18.70;51.52;102679.44;4918922;29;19916;-75
2022/04/15 01:34:48;;;;;;;;;;;;;;;18.71;51.57;102685.50;4919130;29;19919;-75
2022/04/15 01:37:15;;;;;;;;;;;;;;;18.71;51.60;102678.56;4920439;29;20010;-75
2022/04/15 01:39:41;;;;;;;;;;;;;;;18.72;51.53;102682.03;4919016;29;20067;-76
2022/04/15 01:42:10;;;;;;;;;;;;;;;18.71;51.53;102673.34;4918521;29;19971;-75
2022/04/15 01:44:35;;;;;;;;;;;;;;;18.73;51.56;102682.91;4918772;29;20370;-76
2022/04/15 01:47:00;;;;;;;;;;;;;;;18.71;51.53;102690.72;4918944;29;19915;-76
2022/04/15 01:49:26;;;;;;;;;;;;;;;18.71;51.59;102690.72;4903110;29;19923;-77
2022/04/15 01:51:51;;;;;;;;;;;;;;;18.70;51.58;102695.06;4902846;29;20385;-76
2022/04/15 01:54:16;;;;;;;;;;;;;;;18.70;51.65;102689.84;4918601;29;19961;-76
2022/04/15 01:56:41;;;;;;;;;;;;;;;18.71;51.65;102694.22;4902880;29;20497;-76
2022/04/15 01:59:09;;;;;;;;;;;;;;;18.71;51.64;102693.34;4918752;29;19927;-77
2022/04/15 02:01:34;;;;;;;;;;;;;;;18.70;51.68;102695.06;4918483;29;19926;-76
2022/04/15 02:03:59;;;;;;;;;;;;;;;18.69;51.61;102693.31;4919628;29;19919;-77
2022/04/15 02:06:25;;;;;;;;;;;;;;;18.70;51.62;102697.69;4918517;29;19923;-76
2022/04/15 02:08:50;;;;;;;;;;;;;;;18.71;51.71;102698.56;4902611;29;20294;-76
2022/04/15 02:11:15;;;;;;;;;;;;;;;18.70;51.66;102691.56;4918617;29;19919;-76
2022/04/15 02:13:40;;;;;;;;;;;;;;;18.68;51.59;102696.78;4918525;29;20049;-77
2022/04/15 02:16:06;;;;;;;;;;;;;;;18.69;51.59;102695.03;4918361;29;19919;-76
2022/04/15 02:18:31;;;;;;;;;;;;;;;18.68;51.78;102695.88;4918283;29;19912;-76
2022/04/15 02:20:56;;;;;;;;;;;;;;;18.68;51.49;102702.00;4902411;29;19927;-76
2022/04/15 02:23:21;;;;;;;;;;;;;;;18.69;51.56;102692.44;4918285;29;20395;-77
2022/04/15 02:25:46;;;;;;;;;;;;;;;18.69;51.59;102698.53;4902461;29;19923;-78
2022/04/15 02:28:12;;;;;;;;;;;;;;;18.68;51.47;102699.38;4902412;29;19926;-77
2022/04/15 02:30:37;;;;;;;;;;;;;;;18.68;51.52;102698.50;4902185;29;19919;-76
2022/04/15 02:33:02;;;;;;;;;;;;;;;18.68;51.52;102702.00;4918227;29;20021;-77
2022/04/15 02:35:28;;;;;;;;;;;;;;;18.69;51.71;102700.25;4902259;29;19922;-76
2022/04/15 02:37:53;;;;;;;;;;;;;;;18.69;51.51;102702.88;4919367;29;19919;-76
2022/04/15 02:40:18;;;;;;;;;;;;;;;18.67;51.58;102708.03;4917808;29;19919;-77
2022/04/15 02:42:43;;;;;;;;;;;;;;;18.67;51.53;102705.44;4919201;29;19970;-76
2022/04/15 02:45:09;;;;;;;;;;;;;;;18.66;51.51;102701.09;4917915;29;20003;-76
2022/04/15 02:47:34;;;;;;;;;;;;;;;18.65;51.56;102704.53;4919124;29;20385;-76
2022/04/15 02:49:59;;;;;;;;;;;;;;;18.65;51.49;102709.75;4917931;29;20381;-77
2022/04/15 02:52:25;;;;;;;;;;;;;;;18.67;51.47;102710.66;4917523;29;19922;-76
2022/04/15 02:54:50;;;;;;;;;;;;;;;18.66;51.43;102714.13;4918223;29;19926;-76
2022/04/15 02:57:15;;;;;;;;;;;;;;;18.66;51.48;102715.84;4918762;29;19922;-76
2022/04/15 02:59:40;;;;;;;;;;;;;;;18.66;51.66;102710.63;4901709;29;20144;-77
2022/04/15 03:02:05;;;;;;;;;;;;;;;18.63;51.51;102719.28;4902048;29;19998;-78
2022/04/15 03:04:31;;;;;;;;;;;;;;;18.64;51.49;102718.44;4917264;29;19922;-75
2022/04/15 03:06:56;;;;;;;;;;;;;;;18.66;51.50;102731.47;4917611;29;19919;-76
2022/04/15 03:09:21;;;;;;;;;;;;;;;18.66;51.64;102724.56;4918555;29;20013;-77
2022/04/15 03:11:47;;;;;;;;;;;;;;;18.65;51.47;102720.19;4901780;29;19945;-76
2022/04/15 03:14:12;;;;;;;;;;;;;;;18.64;51.64;102722.75;4917484;29;19930;-76
2022/04/15 03:16:37;;;;;;;;;;;;;;;18.63;51.56;102726.22;4917509;29;19919;-76
2022/04/15 03:19:03;;;;;;;;;;;;;;;18.63;51.43;102721.03;4901451;29;19920;-77
2022/04/15 03:21:28;;;;;;;;;;;;;;;18.63;51.73;102727.09;4918284;29;19927;-75
2022/04/15 03:23:53;;;;;;;;;;;;;;;18.62;51.49;102730.56;4918379;29;19974;-76
2022/04/15 03:26:19;;;;;;;;;;;;;;;18.62;51.57;102730.56;4917200;29;20381;-77
2022/04/15 03:28:44;;;;;;;;;;;;;;;18.62;51.48;102733.19;4917091;29;19974;-78
2022/04/15 03:31:10;;;;;;;;;;;;;;;18.62;51.46;102730.56;4916933;29;19919;-78
2022/04/15 03:33:36;;;;;;;;;;;;;;;18.63;51.40;102731.44;4916887;29;19930;-78
2022/04/15 03:36:01;;;;;;;;;;;;;;;18.61;51.39;102736.63;4901329;29;20936;-76
2022/04/15 03:38:26;;;;;;;;;;;;;;;18.63;51.45;102732.31;4917188;29;19923;-77
2022/04/15 03:40:51;;;;;;;;;;;;;;;18.62;51.49;102738.41;4918263;29;20009;-76
2022/04/15 03:43:17;;;;;;;;;;;;;;;18.62;51.35;102737.53;4901187;29;19923;-76
2022/04/15 03:45:42;;;;;;;;;;;;;;;18.62;51.41;102747.97;4916917;29;19923;-76
2022/04/15 03:48:07;;;;;;;;;;;;;;;18.61;51.54;102746.19;4900903;29;20362;-77
2022/04/15 03:50:33;;;;;;;;;;;;;;;18.62;51.41;102754.03;4916873;29;20397;-76
2022/04/15 03:52:59;;;;;;;;;;;;;;;18.60;51.38;102753.13;4917895;29;20450;-77
2022/04/15 03:55:24;;;;;;;;;;;;;;;18.60;51.35;102760.97;4916958;29;19947;-78
2022/04/15 03:57:50;;;;;;;;;;;;;;;18.60;51.58;102762.69;4916761;29;19919;-78
2022/04/15 04:00:20;;;;;;;;;;;;;;;18.60;51.63;102760.09;4916966;29;19915;-76
2022/04/15 04:02:51;;;;;;;;;;;;;;;18.61;51.57;102754.88;4916800;29;19919;-76
2022/04/15 04:05:16;;;;;;;;;;;;;;;18.60;51.42;102755.75;4916537;29;19922;-76
2022/04/15 04:07:42;;;;;;;;;;;;;;;18.58;51.50;102751.38;4918111;29;20259;-75
2022/04/15 04:10:08;;;;;;;;;;;;;;;18.59;51.55;102753.97;4917858;29;19922;-75
2022/04/15 04:12:34;;;;;;;;;;;;;;;18.59;51.33;102753.97;4916395;29;19915;-76
2022/04/15 04:15:03;;;;;;;;;;;;;;;18.59;51.39;102751.38;4916614;29;19915;-75
2022/04/15 04:17:28;;;;;;;;;;;;;;;18.59;51.38;102756.59;4916634;29;19915;-76
2022/04/15 04:19:54;;;;;;;;;;;;;;;18.57;51.40;102755.69;4917743;29;20390;-75
2022/04/15 04:22:19;;;;;;;;;;;;;;;18.57;51.52;102760.91;4917586;29;19927;-76
2022/04/15 04:24:44;;;;;;;;;;;;;;;18.57;51.31;102758.28;4900824;29;19923;-75
2022/04/15 04:27:10;;;;;;;;;;;;;;;18.58;51.31;102760.06;4900887;29;19920;-76
2022/04/15 04:29:35;;;;;;;;;;;;;;;18.58;51.29;102765.28;4917551;29;20401;-76
2022/04/15 04:32:00;;;;;;;;;;;;;;;18.58;51.32;102762.66;4900656;29;19919;-76
2022/04/15 04:34:25;;;;;;;;;;;;;;;18.56;51.32;102766.97;4900688;29;19994;-76
2022/04/15 04:36:50;;;;;;;;;;;;;;;18.56;51.46;102766.09;4916486;29;19925;-77
2022/04/15 04:39:16;;;;;;;;;;;;;;;18.55;51.36;102767.81;4900627;29;20039;-77
2022/04/15 04:41:41;;;;;;;;;;;;;;;18.56;51.35;102772.19;4900518;29;19966;-77
2022/04/15 04:44:06;;;;;;;;;;;;;;;18.55;51.34;102770.41;4916327;29;19930;-77
2022/04/15 04:46:32;;;;;;;;;;;;;;;18.57;51.30;102770.44;4916276;29;19919;-76
2022/04/15 04:48:57;;;;;;;;;;;;;;;18.57;51.20;102780.88;4916086;29;19922;-77
2022/04/15 04:51:23;;;;;;;;;;;;;;;18.57;51.34;102778.28;4916150;29;19943;-76
2022/04/15 04:53:48;;;;;;;;;;;;;;;18.58;51.29;102786.13;4916419;29;19924;-76
2022/04/15 04:56:15;;;;;;;;;;;;;;;18.57;51.23;102794.78;4916244;29;20305;-76
2022/04/15 04:58:40;;;;;;;;;;;;;;;18.58;51.18;102793.09;4900591;29;19966;-77
2022/04/15 05:01:05;;;;;;;;;;;;;;;18.56;51.24;102803.47;4917290;29;19950;-76
2022/04/15 05:03:31;;;;;;;;;;;;;;;18.56;51.32;102803.47;4916075;29;19934;-76
2022/04/15 05:05:56;;;;;;;;;;;;;;;18.57;51.17;102804.34;4917106;29;19919;-76
2022/04/15 05:08:21;;;;;;;;;;;;;;;18.57;51.37;102806.94;4917247;29;19921;-77
2022/04/15 05:10:46;;;;;;;;;;;;;;;18.59;51.30;102811.34;4900222;29;19963;-75
2022/04/15 05:13:11;;;;;;;;;;;;;;;18.60;51.19;102809.63;4915853;29;19970;-75
2022/04/15 05:15:37;;;;;;;;;;;;;;;18.59;51.21;102808.72;4900381;29;19919;-77
2022/04/15 05:18:02;;;;;;;;;;;;;;;18.61;51.17;102813.97;4919898;29;19919;-76
2022/04/15 05:20:29;;;;;;;;;;;;;;;18.65;51.11;102818.41;4919087;29;19928;-76
2022/04/15 05:22:54;;;;;;;;;;;;;;;18.65;51.09;102824.50;4903702;29;19926;-76
2022/04/15 05:25:19;;;;;;;;;;;;;;;18.67;51.00;102828.00;4919232;29;19915;-78
2022/04/15 05:27:45;;;;;;;;;;;;;;;18.69;51.07;102831.53;4919123;29;20290;-76
2022/04/15 05:30:10;;;;;;;;;;;;;;;18.73;50.91;102835.06;4903234;29;20021;-76
2022/04/15 05:32:38;;;;;;;;;;;;;;;18.73;51.04;102836.78;4918760;29;19915;-76
2022/04/15 05:35:03;;;;;;;;;;;;;;;18.73;50.90;102842.91;4920085;29;20267;-78
2022/04/15 05:37:29;;;;;;;;;;;;;;;18.76;50.91;102842.94;4918905;29;19921;-77
2022/04/15 05:39:54;;;;;;;;;;;;;;;18.78;50.83;102841.28;4919235;29;19950;-76
2022/04/15 05:42:19;;;;;;;;;;;;;;;18.79;50.83;102848.25;4920191;29;20282;-78
2022/04/15 05:44:44;;;;;;;;;;;;;;;18.84;50.74;102849.22;4903540;29;19942;-75
2022/04/15 05:47:10;;;;;;;;;;;;;;;19.00;50.60;102850.34;4903455;29;19920;-76
2022/04/15 05:49:35;;;;;;;;;;;;;;;19.20;50.16;102845.44;4918841;29;19950;-75
2022/04/15 05:52:01;;;;;;;;;;;;;;;19.36;49.86;102846.56;4920163;29;20362;-76
2022/04/15 05:54:26;;;;;;;;;;;;;;;19.42;50.13;102857.06;4918737;29;19919;-79
2022/04/15 05:56:51;;;;;;;;;;;;;;;19.45;50.31;102853.66;4918952;29;19970;-77
2022/04/15 05:59:20;;;;;;;;;;;;;;;19.45;50.20;102862.34;4903365;29;19927;-80
2022/04/15 06:01:46;;;;;;;;;;;;;;;19.47;50.07;102862.38;4904207;29;19927;-80
2022/04/15 06:04:11;;;;;;;;;;;;;;;19.48;50.25;102853.69;4918687;29;19919;-79
2022/04/15 06:06:36;;;;;;;;;;;;;;;19.49;50.14;102853.72;4918676;29;19926;-82
2022/04/15 06:09:01;;;;;;;;;;;;;;;19.50;50.06;102857.19;4902693;29;19919;-77
2022/04/15 06:11:27;;;;;;;;;;;;;;;19.51;50.06;102854.63;4919810;29;19923;-80
2022/04/15 06:13:55;;;;;;;;;;;;;;;19.51;50.15;102869.38;4918327;29;19926;-76
2022/04/15 06:16:20;;;;;;;;;;;;;;;19.53;50.31;102873.81;4902554;29;19923;-80
2022/04/15 06:18:46;;;;;;;;;;;;;;;19.54;49.88;102872.06;4902736;29;20282;-81
2022/04/15 06:21:11;;;;;;;;;;;;;;;19.50;50.20;102876.34;4918577;29;19979;-83
2022/04/15 06:23:38;;;;;;;;;;;;;;;19.48;50.33;102872.84;4902798;29;19920;-84
2022/04/15 06:26:04;;;;;;;;;;;;;;;19.44;50.12;102878.84;4920321;29;20008;-81
2022/04/15 06:28:29;;;;;;;;;;;;;;;19.47;50.27;102891.09;4918709;29;19955;-83
2022/04/15 06:30:57;;;;;;;;;;;;;;;19.48;50.24;102885.03;4902908;29;20084;-83
2022/04/15 06:33:22;;;;;;;;;;;;;;;19.47;50.23;102885.88;4918427;29;19942;-83
2022/04/15 06:35:50;;;;;;;;;;;;;;;19.49;50.28;102897.25;4918363;29;20283;-85
2022/04/15 06:38:15;;;;;;;;;;;;;;;19.51;50.43;102898.09;4902776;29;19966;-85
2022/04/15 06:40:40;;;;;;;;;;;;;;;19.51;50.14;102904.22;4902219;29;19922;-80
2022/04/15 06:43:06;;;;;;;;;;;;;;;19.52;50.12;102903.38;4902244;29;20382;-79
2022/04/15 06:45:32;;;;;;;;;;;;;;;19.52;50.20;102907.72;4902068;29;19923;-79
2022/04/15 06:47:57;;;;;;;;;;;;;;;19.51;50.11;102912.06;4918001;29;19919;-80
2022/04/15 06:50:22;;;;;;;;;;;;;;;19.50;50.15;102907.69;4902116;29;19995;-80
2022/04/15 06:52:48;;;;;;;;;;;;;;;19.50;50.07;102909.41;4902485;29;20382;-78
2022/04/15 06:55:13;;;;;;;;;;;;;;;19.53;50.02;102915.59;4918939;29;19915;-80
2022/04/15 06:57:38;;;;;;;;;;;;;;;19.51;49.94;102914.69;4902323;29;19942;-79
2022/04/15 07:00:04;;;;;;;;;;;;;;;19.57;49.97;102915.63;4901676;29;19920;-79
2022/04/15 07:02:29;;;;;;;;;;;;;;;19.55;49.90;102918.19;4917474;29;20012;-79
2022/04/15 07:04:54;;;;;;;;;;;;;;;19.54;50.07;102921.69;4917423;29;20366;-80
2022/04/15 07:07:20;;;;;;;;;;;;;;;19.55;50.10;102922.53;4917808;29;19923;-79
2022/04/15 07:09:45;;;;;;;;;;;;;;;19.59;49.88;102920.00;4902082;29;19919;-83
2022/04/15 07:12:11;;;;;;;;;;;;;;;19.59;49.84;102922.63;4917597;29;19922;-78
2022/04/15 07:14:36;;;;;;;;;;;;;;;19.57;49.82;102921.72;4901530;29;19923;-78
2022/04/15 07:17:01;;;;;;;;;;;;;;;19.60;50.06;102928.72;4918473;29;20358;-78
2022/04/15 07:19:27;;;;;;;;;;;;;;;19.59;49.87;102924.34;4917370;29;19961;-78
2022/04/15 07:21:52;;;;;;;;;;;;;;;19.63;49.76;102926.16;4901567;29;19927;-78
2022/04/15 07:24:17;;;;;;;;;;;;;;;19.58;50.06;102926.09;4917371;29;19919;-77
2022/04/15 07:26:43;;;;;;;;;;;;;;;19.53;50.22;102922.50;4917260;29;19922;-77
2022/04/15 07:29:08;;;;;;;;;;;;;;;19.57;50.04;102928.66;4916983;29;20252;-79
2022/04/15 07:31:43;;;;;;;;;;;;;;;19.59;50.02;102933.06;4917000;29;19955;-79
2022/04/15 07:34:08;;;;;;;;;;;;;;;19.62;49.79;102934.84;4902268;29;19923;-80
2022/04/15 07:39:06;;;;;;;;;;;;;;;19.82;49.93;102933.44;4917237;29;19927;-78
2022/04/15 07:41:32;;;;;;;;;;;;;;;19.82;49.67;102930.84;4918066;29;19919;-80
2022/04/15 07:43:57;;;;;;;;;;;;;;;19.78;49.67;102928.16;4918271;29;19975;-81
2022/04/15 07:46:23;;;;;;;;;;;;;;;19.73;49.69;102936.81;4917092;29;19957;-78
2022/04/15 07:48:48;;;;;;;;;;;;;;;19.72;49.96;102921.97;4916812;29;19915;-79
2022/04/15 07:51:14;;;;;;;;;;;;;;;19.73;50.29;102928.09;4917325;29;19977;-82
2022/04/15 07:53:39;;;;;;;;;;;;;;;19.84;49.61;102917.81;4901362;29;19924;-80
2022/04/15 07:56:04;;;;;;;;;;;;;;;19.74;49.92;102924.63;4901362;29;19926;-82
2022/04/15 07:58:30;;;;;;;;;;;;;;;19.68;50.16;102932.31;4917116;29;19919;-81
2022/04/15 08:00:55;;;;;;;;;;;;;;;19.67;50.07;102941.91;4917118;29;19938;-81
2022/04/15 08:03:21;;;;;;;;;;;;;;;19.67;49.97;102936.66;4917188;29;19915;-82
2022/04/15 08:05:47;;;;;;;;;;;;;;;19.67;50.01;102941.91;4917105;29;19911;-81
2022/04/15 08:08:12;;;;;;;;;;;;;;;19.64;50.22;102941.88;4916606;29;20388;-81
2022/04/15 08:10:37;;;;;;;;;;;;;;;19.67;49.88;102952.34;4916964;29;19962;-83
2022/04/15 08:13:02;;;;;;;;;;;;;;;19.62;49.98;102951.41;4901151;29;19994;-83
2022/04/15 08:15:28;;;;;;;;;;;;;;;19.64;49.97;102946.19;4917038;29;19920;-82
2022/04/15 08:17:53;;;;;;;;;;;;;;;19.59;49.98;102946.13;4916886;29;19919;-83
2022/04/15 08:20:18;;;;;;;;;;;;;;;19.64;49.90;102939.25;4900674;29;20306;-83
2022/04/15 08:22:44;;;;;;;;;;;;;;;19.70;49.73;102947.19;4917959;29;19955;-81
2022/04/15 08:25:09;;;;;;;;;;;;;;;19.65;49.95;102947.97;4916563;29;19926;-82
2022/04/15 08:27:34;;;;;;;;;;;;;;;19.71;49.70;102956.78;4900910;29;19966;-80
2022/04/15 08:29:59;;;;;;;;;;;;;;;19.69;49.79;102958.50;4900792;29;20006;-80
2022/04/15 08:32:32;;;;;;;;;;;;;;;19.71;49.78;102954.19;4916548;29;20002;-79
2022/04/15 08:34:58;;;;;;;;;;;;;;;19.72;49.63;102949.84;4916447;29;20343;-81
2022/04/15 08:37:23;;;;;;;;;;;;;;;19.73;49.58;102949.00;4900819;29;20021;-83
2022/04/15 08:39:48;;;;;;;;;;;;;;;19.73;49.62;102947.25;4900525;29;20000;-83
2022/04/15 08:42:14;;;;;;;;;;;;;;;19.69;49.69;102947.16;4900652;29;19974;-78
2022/04/15 08:44:40;;;;;;;;;;;;;;;19.65;49.91;102958.41;4901240;29;19919;-80
2022/04/15 08:47:07;;;;;;;;;;;;;;;19.65;49.77;102958.41;4901465;29;19920;-80
2022/04/15 08:49:34;;;;;;;;;;;;;;;19.64;49.95;102956.63;4916860;29;19915;-84
2022/04/15 08:52:00;;;;;;;;;;;;;;;19.63;49.76;102953.16;4917835;29;19915;-83
2022/04/15 08:54:25;;;;;;;;;;;;;;;19.67;49.87;102961.91;4904400;29;19929;-82
2022/04/15 08:56:50;;;;;;;;;;;;;;;19.64;49.90;102967.06;4904160;29;19919;-83
2022/04/15 08:59:16;;;;;;;;;;;;;;;19.64;49.81;102967.06;4920140;29;20327;-82
2022/04/15 09:01:41;;;;;;;;;;;;;;;19.67;49.78;102969.75;4904176;29;20434;-83
2022/04/15 09:04:06;;;;;;;;;;;;;;;19.71;49.89;102974.22;4904353;29;19915;-84
2022/04/15 09:06:32;;;;;;;;;;;;;;;19.72;49.77;102971.59;4904341;29;19919;-83
2022/04/15 09:09:11;;;;;;;;;;;;;;;19.70;49.67;102975.06;4921117;29;19974;-85
2022/04/15 09:11:37;;;;;;;;;;;;;;;19.73;49.60;102977.72;4920462;29;19948;-82
2022/04/15 09:14:07;;;;;;;;;;;;;;;19.76;49.53;102983.00;4905466;29;19923;-79
2022/04/15 09:16:36;;;;;;;;;;;;;;;19.78;49.64;102980.41;4922695;29;19924;-82
2022/04/15 09:19:02;;;;;;;;;;;;;;;19.76;49.66;102984.72;4921158;29;19921;-79
2022/04/15 09:21:28;;;;;;;;;;;;;;;19.70;49.47;102988.97;4905462;29;19931;-81
2022/04/15 09:23:54;;;;;;;;;;;;;;;19.75;47.88;102980.34;4908951;29;19920;-80
2022/04/15 09:26:20;;;;;;;;;;;;;;;19.76;47.09;102988.22;4924843;29;20259;-83
2022/04/15 09:28:47;;;;;;;;;;;;;;;19.79;46.47;102984.75;4925981;29;19950;-81
2022/04/15 09:31:13;;;;;;;;;;;;;;;19.84;48.14;102981.38;4931147;29;19907;-81
2022/04/15 09:33:48;;;;;;;;;;;;;;;19.95;48.38;102986.75;4934861;29;19926;-79
2022/04/15 09:36:21;;;;;;;;;;;;;;;19.98;47.90;102983.31;4932844;29;19915;-84
2022/04/15 09:38:49;;;;;;;;;;;;;;;19.94;47.79;102990.22;4934658;29;19915;-80
2022/04/15 09:41:22;;;;;;;;;;;;;;;19.88;48.06;102992.72;4918795;29;19923;-79
2022/04/15 09:43:55;;;;;;;;;;;;;;;19.85;48.29;102998.78;4916473;29;20350;-79
2022/04/15 09:46:20;;;;;;;;;;;;;;;19.85;47.77;102996.19;4930074;29;20433;-83
2022/04/15 09:48:58;;;;;;;;;;;;;;;19.82;48.14;102992.66;4931190;29;19919;-82
2022/04/15 09:51:23;;;;;;;;;;;;;;;19.80;45.57;102999.59;4931622;29;19915;-85
2022/04/15 09:53:51;;;;;;;;;;;;;;;19.78;45.23;103010.03;4921013;29;20382;-80
2022/04/15 09:56:18;;;;;;;;;;;;;;;19.87;45.07;103001.44;4904294;29;19923;-78
2022/04/15 09:58:45;;;;;;;;;;;;;;;19.93;46.28;103005.03;4921682;29;19915;-79
2022/04/15 10:01:11;;;;;;;;;;;;;;;19.93;46.07;103004.16;4918995;29;19915;-80
2022/04/15 10:03:39;;;;;;;;;;;;;;;19.89;46.41;102999.72;4904068;29;20445;-82
2022/04/15 10:06:05;;;;;;;;;;;;;;;19.91;46.93;103000.63;4918893;29;20371;-80
2022/04/15 10:08:30;;;;;;;;;;;;;;;20.16;46.67;102996.63;4920019;29;19946;-80
2022/04/15 10:10:56;;;;;;;;;;;;;;;20.30;46.23;102989.00;4903749;29;19923;-87
2022/04/15 10:13:26;;;;;;;;;;;;;;;20.48;46.21;102993.56;4903141;29;19930;-79
2022/04/15 10:15:52;;;;;;;;;;;;;;;20.50;46.33;102992.72;4903533;29;19919;-84
2022/04/15 10:18:18;;;;;;;;;;;;;;;20.46;46.61;102992.69;4918514;29;19919;-79
2022/04/15 10:20:44;;;;;;;;;;;;;;;20.46;46.81;102996.16;4918758;29;19930;-82
2022/04/15 10:23:13;;;;;;;;;;;;;;;20.47;46.88;102986.56;4903256;29;19919;-80
2022/04/15 10:25:38;;;;;;;;;;;;;;;20.30;47.27;102997.72;4903233;29;19923;-81
2022/04/15 10:28:11;;;;;;;;;;;;;;;20.16;46.84;102994.00;4919968;29;19919;-81
2022/04/15 10:30:38;;;;;;;;;;;;;;;20.11;47.22;103001.78;4918194;29;19922;-76
2022/04/15 10:33:03;;;;;;;;;;;;;;;20.03;47.73;103002.53;4917920;29;19925;-77
2022/04/15 10:35:30;;;;;;;;;;;;;;;19.99;47.72;103005.97;4919090;29;19915;-79
2022/04/15 10:37:56;;;;;;;;;;;;;;;19.96;47.71;102996.34;4917855;29;19915;-80
2022/04/15 10:40:22;;;;;;;;;;;;;;;19.96;47.69;102998.09;4917853;29;20315;-78
2022/04/15 10:42:48;;;;;;;;;;;;;;;19.93;47.36;102997.19;4918025;29;19926;-77
2022/04/15 10:45:29;;;;;;;;;;;;;;;19.89;47.00;102992.75;4902134;29;19919;-77
2022/04/15 10:47:59;;;;;;;;;;;;;;;19.89;47.42;102992.75;4917640;29;19915;-80
2022/04/15 10:50:28;;;;;;;;;;;;;;;19.87;47.09;102991.00;4917862;29;19915;-76
2022/04/15 10:53:13;;;;;;;;;;;;;;;19.88;46.71;102998.88;4917670;29;19919;-78
2022/04/15 10:55:43;;;;;;;;;;;;;;;19.86;45.58;102995.34;4918976;29;19958;-78
2022/04/15 10:58:12;;;;;;;;;;;;;;;19.84;46.44;102988.34;4917547;29;19927;-78
2022/04/15 11:03:29;;;;;;;;;;;;;;;19.90;46.65;102994.53;4917862;29;20376;-77
2022/04/15 11:05:56;;;;;;;;;;;;;;;19.87;46.51;102991.88;4918586;29;19938;-80
2022/04/15 11:08:25;;;;;;;;;;;;;;;19.86;47.08;102995.34;4902083;29;19925;-76
2022/04/15 11:10:58;;;;;;;;;;;;;;;19.90;46.79;102993.63;4917523;29;19924;-80
2022/04/15 11:13:33;;;;;;;;;;;;;;;19.89;46.39;103003.22;4918502;29;19963;-77
2022/04/15 11:16:06;;;;;;;;;;;;;;;19.89;46.43;102997.13;4916967;29;19926;-78
2022/04/15 11:18:53;;;;;;;;;;;;;;;19.86;46.48;102989.22;4917073;29;19915;-78
2022/04/15 11:21:23;;;;;;;;;;;;;;;19.86;46.58;102995.34;4922059;29;20259;-77
2022/04/15 11:23:49;;;;;;;;;;;;;;;19.84;46.54;102993.56;4917166;29;19946;-78
2022/04/15 11:26:15;;;;;;;;;;;;;;;19.81;46.17;102991.75;4917654;29;19923;-78
2022/04/15 11:28:42;;;;;;;;;;;;;;;19.79;46.57;102988.25;4918326;29;19915;-79
2022/04/15 11:31:20;;;;;;;;;;;;;;;19.84;46.65;102997.06;4916970;29;20325;-79
2022/04/15 11:33:46;;;;;;;;;;;;;;;19.86;46.40;102989.22;4901812;29;20429;-80
2022/04/15 11:36:11;;;;;;;;;;;;;;;19.86;46.66;102997.06;4901475;29;19923;-78
2022/04/15 11:38:36;;;;;;;;;;;;;;;19.84;46.58;102999.66;4901236;29;19926;-78
2022/04/15 11:41:02;;;;;;;;;;;;;;;19.84;46.71;102990.97;4901133;29;19919;-78
2022/04/15 11:43:27;;;;;;;;;;;;;;;19.83;46.40;102995.28;4901228;29;19946;-76
2022/04/15 11:45:53;;;;;;;;;;;;;;;19.89;46.56;103003.22;4916956;29;20579;-78
2022/04/15 11:48:22;;;;;;;;;;;;;;;19.90;46.47;102999.75;4917389;29;20374;-87
2022/04/15 11:50:49;;;;;;;;;;;;;;;19.88;46.81;102998.88;4918881;29;19919;-89
2022/04/15 11:53:15;;;;;;;;;;;;;;;19.91;46.90;103003.25;4917384;29;19950;-78
2022/04/15 11:55:51;;;;;;;;;;;;;;;19.92;46.64;103000.66;4918442;29;19955;-79
2022/04/15 11:58:16;;;;;;;;;;;;;;;19.98;46.80;103005.09;4916640;29;19915;-77
2022/04/15 12:00:42;;;;;;;;;;;;;;;19.96;46.68;102998.97;4916498;29;19957;-77
2022/04/15 12:03:10;;;;;;;;;;;;;;;19.98;46.89;102999.00;4916813;29;19914;-78
2022/04/15 12:05:36;;;;;;;;;;;;;;;19.99;47.14;102995.50;4916509;29;19916;-78
2022/04/15 12:08:01;;;;;;;;;;;;;;;20.01;46.87;102997.31;4916555;29;19919;-77
2022/04/15 12:10:29;;;;;;;;;;;;;;;20.00;47.06;103002.50;4900976;29;19923;-77
2022/04/15 12:12:54;;;;;;;;;;;;;;;19.99;47.14;103003.34;4901219;29;19919;-78
2022/04/15 12:15:24;;;;;;;;;;;;;;;20.01;47.30;103004.25;4916518;29;20338;-77
2022/04/15 12:17:49;;;;;;;;;;;;;;;20.00;47.41;103010.34;4916538;29;19922;-78
2022/04/15 12:20:16;;;;;;;;;;;;;;;20.00;47.21;103012.97;4900820;29;19919;-78
2022/04/15 12:22:41;;;;;;;;;;;;;;;19.99;47.31;103006.88;4900878;29;20438;-77
2022/04/15 12:25:19;;;;;;;;;;;;;;;19.96;47.17;103012.03;4900871;29;19923;-77
2022/04/15 12:27:46;;;;;;;;;;;;;;;19.97;47.25;103007.66;4904833;29;19927;-78
2022/04/15 12:30:11;;;;;;;;;;;;;;;19.97;47.19;103011.19;4921599;29;19919;-78
2022/04/15 12:32:39;;;;;;;;;;;;;;;20.02;47.08;103006.03;4920531;29;19922;-77
2022/04/15 12:35:12;;;;;;;;;;;;;;;20.02;47.08;103008.63;4920287;29;20290;-79
2022/04/15 12:37:38;;;;;;;;;;;;;;;19.99;47.11;103009.47;4920215;29;19918;-79